Sky Queen — 3EHV9 — position and weather

sailwx.info

Track history (hours):
 
Tides and Currents Weather Stations Pressure Air Temp Water Temp Dewpoint Dewpoint Depression Visibility Wind Speed Wind Dir Waves Ship Positions

Sky Queen

Last reported at 2015-Jul-04 23:25 UTC. Time now 2015-Jul-05 00:08 UTC.
Position N 35°30' E 139°44'.

Length 89 m; draft 3.2 m.

Type: Cargo ship. MMSI: 372259000.

Date/timePositionNaut miles runAvg speedWind from/ knotsBaromVisibWave heightAir tempDewpointWater temp
2015-Jul-04 23:25N 35°30' E 139°44'0 0.0
2015-Jul-04 22:31N 35°30' E 139°44'0 0.0
2015-Jul-04 21:31N 35°30' E 139°44'0 0.0
2015-Jul-04 20:31N 35°30' E 139°44'0 0.0
2015-Jul-04 19:31N 35°30' E 139°44'0 0.0
2015-Jul-04 18:31N 35°30' E 139°44'0 0.0
2015-Jul-04 17:31N 35°30' E 139°44'0 0.0
2015-Jul-04 14:13N 35°30' E 139°44'0 0.0
2015-Jul-04 13:25N 35°30' E 139°44'0 0.0
2015-Jul-04 12:31N 35°30' E 139°44'0 0.0
2015-Jul-04 11:28N 35°30' E 139°44'0 0.0
2015-Jul-04 10:33N 35°30' E 139°44'0 0.0
2015-Jul-04 09:33N 35°30' E 139°44'0 0.0
2015-Jul-04 08:33N 35°30' E 139°44'0 0.0
2015-Jul-04 07:33N 35°30' E 139°44'0 0.0
2015-Jul-04 06:32N 35°30' E 139°44'0 0.0
2015-Jul-04 05:33N 35°30' E 139°44'0 0.0
2015-Jul-04 04:33N 35°30' E 139°44'0 0.0
2015-Jul-04 03:33N 35°30' E 139°44'0 0.0
2015-Jul-04 02:33N 35°30' E 139°44'0 0.0
2015-Jul-04 01:33N 35°30' E 139°44'0 0.0
2015-Jul-04 00:32N 35°30' E 139°44'0 0.0
2015-Jul-03 23:33N 35°30' E 139°44'0 0.0
2015-Jul-03 22:33N 35°30' E 139°44'0 0.0
2015-Jul-03 21:33N 35°30' E 139°44'0 0.0
2015-Jul-03 20:33N 35°30' E 139°44'0 0.0
2015-Jul-03 19:33N 35°30' E 139°44'0 0.0
2015-Jul-03 18:33N 35°30' E 139°44'0 0.0
2015-Jul-03 17:33N 35°30' E 139°44'0 0.0
2015-Jul-03 16:33N 35°30' E 139°44'0 0.0
2015-Jul-03 15:33N 35°30' E 139°44'0 0.0
2015-Jul-03 14:33N 35°30' E 139°44'0 0.0
2015-Jul-03 13:33N 35°30' E 139°44'0 0.0
2015-Jul-03 12:33N 35°30' E 139°44'0 0.0
2015-Jul-03 11:33N 35°30' E 139°44'0 0.0
2015-Jul-03 10:33N 35°30' E 139°44'3 2.8
2015-Jul-03 09:33N 35°27' E 139°43'6 5.7
2015-Jul-03 08:33N 35°22' E 139°46'9 8.1
2015-Jul-03 07:29N 35°14' E 139°47'9 9.4
2015-Jul-03 06:33N 35°05' E 139°45'241 7.5
2015-Jul-01 22:33N 34°13' E 134°59'17 7.8
2015-Jul-01 20:23N 34°30' E 135°01'  
Track history (hours):
 
Tides and Currents Weather Stations Pressure Air Temp Water Temp Dewpoint Dewpoint Depression Visibility Wind Speed Wind Dir Waves Ship Positions

Sky Queen

Last reported at 2015-Jul-04 23:25 UTC. Time now 2015-Jul-05 00:08 UTC.
Position N 35°30' E 139°44'.

Length 89 m; draft 3.2 m.

Type: Cargo ship. MMSI: 372259000.

Date/timePositionNaut miles runAvg speedWind from/ knotsBaromVisibWave heightAir tempDewpointWater temp
2015-Jul-04 23:25N 35°30' E 139°44'0 0.0
2015-Jul-04 22:31N 35°30' E 139°44'0 0.0
2015-Jul-04 21:31N 35°30' E 139°44'0 0.0
2015-Jul-04 20:31N 35°30' E 139°44'0 0.0
2015-Jul-04 19:31N 35°30' E 139°44'0 0.0
2015-Jul-04 18:31N 35°30' E 139°44'0 0.0
2015-Jul-04 17:31N 35°30' E 139°44'0 0.0
2015-Jul-04 14:13N 35°30' E 139°44'0 0.0
2015-Jul-04 13:25N 35°30' E 139°44'0 0.0
2015-Jul-04 12:31N 35°30' E 139°44'0 0.0
2015-Jul-04 11:28N 35°30' E 139°44'0 0.0
2015-Jul-04 10:33N 35°30' E 139°44'0 0.0
2015-Jul-04 09:33N 35°30' E 139°44'0 0.0
2015-Jul-04 08:33N 35°30' E 139°44'0 0.0
2015-Jul-04 07:33N 35°30' E 139°44'0 0.0
2015-Jul-04 06:32N 35°30' E 139°44'0 0.0
2015-Jul-04 05:33N 35°30' E 139°44'0 0.0
2015-Jul-04 04:33N 35°30' E 139°44'0 0.0
2015-Jul-04 03:33N 35°30' E 139°44'0 0.0
2015-Jul-04 02:33N 35°30' E 139°44'0 0.0
2015-Jul-04 01:33N 35°30' E 139°44'0 0.0
2015-Jul-04 00:32N 35°30' E 139°44'0 0.0
2015-Jul-03 23:33N 35°30' E 139°44'0 0.0
2015-Jul-03 22:33N 35°30' E 139°44'0 0.0
2015-Jul-03 21:33N 35°30' E 139°44'0 0.0
2015-Jul-03 20:33N 35°30' E 139°44'0 0.0
2015-Jul-03 19:33N 35°30' E 139°44'0 0.0
2015-Jul-03 18:33N 35°30' E 139°44'0 0.0
2015-Jul-03 17:33N 35°30' E 139°44'0 0.0
2015-Jul-03 16:33N 35°30' E 139°44'0 0.0
2015-Jul-03 15:33N 35°30' E 139°44'0 0.0
2015-Jul-03 14:33N 35°30' E 139°44'0 0.0
2015-Jul-03 13:33N 35°30' E 139°44'0 0.0
2015-Jul-03 12:33N 35°30' E 139°44'0 0.0
2015-Jul-03 11:33N 35°30' E 139°44'0 0.0
2015-Jul-03 10:33N 35°30' E 139°44'3 2.8
2015-Jul-03 09:33N 35°27' E 139°43'6 5.7
2015-Jul-03 08:33N 35°22' E 139°46'9 8.1
2015-Jul-03 07:29N 35°14' E 139°47'9 9.4
2015-Jul-03 06:33N 35°05' E 139°45'241 7.5
2015-Jul-01 22:33N 34°13' E 134°59'17 7.8
2015-Jul-01 20:23N 34°30' E 135°01'  

Dump ship's entire track history